San Felipe, Texas
Current Conditions -  °F | °C
As of 5:55 AM on Monday 22 Dec 2014 (Local Time) from KTME Reporting Station
Haze Haze  
Wind Chill: 57°   Ceiling: 3900
Heat Index: 57°   Visibility: 1.5mi
Dew Point: 57°   Wind: 6mph
Humidity: 100%   Direction: 170°S
Pressure: 29.77"   Gusts: NA
Location:  29.79°N, 96.1°W
Report Text: KTME 221155Z AUTO 17005KT 1 1/2SM BR SCT017 SCT022 OVC039 14/14 A2977 RMK AO2
Loading
Personal Weather Stations






























Interactive Weather Map New forecast layout! Learn more

10-Day Weather Forecast

Advertisements
Track Severe Weather on mobile